Time;durP1;ratioP1;P1;durP2;ratioP2;P2;SDS_P1;SDS_P2;PMS_P1;PMS_P2;Temp;Humidity;BMP_temperature;BMP_pressure;BME280_temperature;BME280_humidity;BME280_pressure;Samples;Min_cycle;Max_cycle;Signal;HPM_P1;HPM_P2
2022/05/09 00:00:27;;;;;;;4.20;4.10;;;;;;;10.93;70.44;102053.53;5113787;28;20275;-69
2022/05/09 00:02:54;;;;;;;4.53;4.27;;;;;;;10.91;70.25;102059.66;5113880;28;20208;-69
2022/05/09 00:05:25;;;;;;;4.80;4.60;;;;;;;10.85;70.18;102060.66;5113903;28;20590;-69
2022/05/09 00:07:53;;;;;;;4.87;4.50;;;;;;;10.86;69.84;102056.28;5114375;28;20224;-69
2022/05/09 00:10:23;;;;;;;4.70;4.43;;;;;;;10.80;70.00;102062.53;5113863;28;20189;-69
2022/05/09 00:12:50;;;;;;;4.97;4.83;;;;;;;10.76;70.20;102066.09;5114712;28;20166;-69
2022/05/09 00:15:18;;;;;;;5.30;5.20;;;;;;;10.75;70.36;102062.59;5113702;28;20181;-69
2022/05/09 00:17:45;;;;;;;4.93;4.53;;;;;;;10.72;70.10;102053.97;5113564;28;20212;-69
2022/05/09 00:20:15;;;;;;;9.07;4.67;;;;;;;10.75;69.33;102057.38;5113115;28;20246;-69
2022/05/09 00:22:53;;;;;;;4.80;4.60;;;;;;;10.77;69.46;102054.72;5113571;28;20246;-69
2022/05/09 00:25:23;;;;;;;4.70;4.57;;;;;;;10.73;69.62;102053.06;5113840;28;20176;-69
2022/05/09 00:27:50;;;;;;;6.30;5.97;;;;;;;10.71;69.84;102054.81;5113623;28;20321;-69
2022/05/09 00:30:17;;;;;;;4.80;4.70;;;;;;;10.75;69.57;102059.13;5113610;28;20724;-69
2022/05/09 00:32:44;;;;;;;5.17;4.73;;;;;;;10.72;69.46;102056.59;5113635;28;20182;-69
2022/05/09 00:35:12;;;;;;;5.33;5.03;;;;;;;10.70;69.50;102055.72;5113590;28;20197;-69
2022/05/09 00:37:39;;;;;;;4.93;4.70;;;;;;;10.65;69.57;102052.38;5113731;28;20212;-69
2022/05/09 00:40:08;;;;;;;7.57;4.67;;;;;;;10.58;69.76;102058.63;5113553;28;20682;-69
2022/05/09 00:42:39;;;;;;;5.20;4.97;;;;;;;10.55;70.21;102056.91;5113431;28;20212;-69
2022/05/09 00:45:06;;;;;;;5.00;4.73;;;;;;;10.53;70.31;102053.47;5113796;28;20200;-69
2022/05/09 00:47:33;;;;;;;5.13;4.70;;;;;;;10.51;70.51;102049.16;5113683;28;20193;-69
2022/05/09 00:50:02;;;;;;;5.07;4.87;;;;;;;10.45;70.41;102052.75;5113489;28;20185;-69
2022/05/09 00:52:36;;;;;;;7.70;5.53;;;;;;;10.41;70.76;102049.31;5113326;28;20185;-69
2022/05/09 00:55:12;;;;;;;5.03;4.83;;;;;;;10.45;70.60;102044.88;5113558;28;20169;-70
2022/05/09 00:57:46;;;;;;;5.20;4.77;;;;;;;10.39;70.80;102039.75;5113355;28;20173;-70
2022/05/09 01:00:17;;;;;;;4.90;4.83;;;;;;;10.37;70.93;102041.56;5113659;28;20173;-70
2022/05/09 01:02:48;;;;;;;4.63;4.53;;;;;;;10.33;71.07;102045.13;5113271;28;20207;-70
2022/05/09 01:05:15;;;;;;;6.03;5.63;;;;;;;10.29;71.19;102043.47;5113613;28;20188;-70
2022/05/09 01:07:42;;;;;;;5.57;5.53;;;;;;;10.27;71.23;102040.00;5114838;28;20704;-69
2022/05/09 01:10:11;;;;;;;6.83;4.53;;;;;;;10.25;71.19;102031.31;5117192;28;20234;-69
2022/05/09 01:12:40;;;;;;;5.53;5.13;;;;;;;10.27;71.20;102040.00;5117126;28;20188;-69
2022/05/09 01:15:12;;;;;;;5.10;4.90;;;;;;;10.27;71.12;102045.22;5116975;28;20188;-69
2022/05/09 01:17:39;;;;;;;5.07;4.83;;;;;;;10.25;71.25;102047.03;5117546;28;20207;-69
2022/05/09 01:20:09;;;;;;;7.23;5.37;;;;;;;10.27;71.24;102040.84;5116287;28;20647;-69
2022/05/09 01:22:38;;;;;;;7.07;4.53;;;;;;;10.19;71.33;102034.88;5117060;28;20610;-69
2022/05/09 01:25:09;;;;;;;4.73;4.43;;;;;;;10.23;71.30;102043.56;5116973;28;20254;-69
2022/05/09 01:27:39;;;;;;;5.20;5.10;;;;;;;10.23;71.24;102033.09;5096733;28;20200;-69
2022/05/09 01:30:13;;;;;;;5.53;5.20;;;;;;;10.14;71.55;102031.47;5096460;28;20193;-70
2022/05/09 01:32:44;;;;;;;5.50;5.00;;;;;;;10.11;71.68;102029.78;5096699;28;20173;-70
2022/05/09 01:35:17;;;;;;;5.20;4.90;;;;;;;10.11;71.85;102024.53;5096633;28;20204;-69
2022/05/09 01:37:55;;;;;;;6.43;4.77;;;;;;;10.12;71.96;102028.03;5099979;28;20250;-69
2022/05/09 01:40:21;;;;;;;7.63;5.43;;;;;;;10.11;72.15;102018.44;5116898;28;20264;-69
2022/05/09 01:42:48;;;;;;;5.13;4.57;;;;;;;10.10;72.28;102022.81;5116317;28;20204;-69
2022/05/09 01:45:15;;;;;;;5.20;4.80;;;;;;;10.09;72.25;102020.25;5117015;28;20200;-69
2022/05/09 01:50:32;;;;;;;4.87;4.57;;;;;;;9.98;72.93;102017.81;5116723;28;20576;-69
2022/05/09 01:52:58;;;;;;;5.63;5.03;;;;;;;10.03;72.53;102021.22;5116957;28;20231;-69
2022/05/09 01:55:26;;;;;;;5.43;5.13;;;;;;;10.01;72.96;102025.63;5116335;28;20185;-69
2022/05/09 01:57:52;;;;;;;5.90;5.70;;;;;;;9.99;73.10;102023.91;5116242;28;20197;-69
2022/05/09 02:00:19;;;;;;;5.13;4.90;;;;;;;9.97;73.36;102028.31;5116186;28;20214;-69
2022/05/09 02:02:45;;;;;;;4.97;4.67;;;;;;;9.93;73.51;102023.13;5116714;28;20215;-69
2022/05/09 02:05:13;;;;;;;5.17;4.93;;;;;;;9.91;73.59;102021.41;5116457;28;20601;-69
2022/05/09 02:07:39;;;;;;;5.53;4.87;;;;;;;9.86;74.10;102031.97;5116612;28;20184;-69
2022/05/09 02:10:06;;;;;;;5.90;5.43;;;;;;;9.87;74.21;102020.63;5116036;28;20201;-69
2022/05/09 02:12:33;;;;;;;5.27;4.97;;;;;;;9.95;74.13;102017.00;5116015;28;20219;-69
2022/05/09 02:15:00;;;;;;;5.40;5.20;;;;;;;9.88;74.40;102024.09;5115979;28;20215;-70
2022/05/09 02:17:29;;;;;;;5.37;4.93;;;;;;;9.85;74.72;102017.16;5115820;28;20203;-69
2022/05/09 02:19:55;;;;;;;5.80;5.30;;;;;;;9.92;74.44;102024.00;5113800;28;20187;-69
2022/05/09 02:22:21;;;;;;;5.00;4.90;;;;;;;9.89;74.56;102017.97;5115608;28;20249;-69
2022/05/09 02:24:48;;;;;;;5.97;5.13;;;;;;;9.92;74.71;102023.13;5116221;28;20184;-69
2022/05/09 02:27:16;;;;;;;5.40;5.10;;;;;;;9.88;74.74;102017.09;5115701;28;20186;-69
2022/05/09 02:29:43;;;;;;;8.70;4.77;;;;;;;9.99;74.61;102023.91;5115850;28;20228;-69
2022/05/09 02:32:10;;;;;;;9.73;5.60;;;;;;;9.81;74.89;102027.72;5115890;28;20676;-70
2022/05/09 02:34:36;;;;;;;5.73;4.93;;;;;;;9.78;75.27;102018.13;5115384;28;20287;-69
2022/05/09 02:37:03;;;;;;;5.97;5.13;;;;;;;9.79;75.30;102022.50;5115585;28;20191;-68
2022/05/09 02:39:30;;;;;;;4.57;4.57;;;;;;;9.82;75.24;102014.59;5115526;28;20208;-69
2022/05/09 02:41:58;;;;;;;5.20;5.10;;;;;;;9.81;75.21;102012.00;5115639;28;20250;-69
2022/05/09 02:44:24;;;;;;;4.67;4.23;;;;;;;9.77;75.29;102018.19;5115263;28;20693;-69
2022/05/09 02:46:51;;;;;;;5.83;5.40;;;;;;;9.77;75.39;102020.78;5115328;28;20524;-69
2022/05/09 02:49:19;;;;;;;7.23;4.57;;;;;;;9.77;75.51;102013.81;5115402;28;20212;-69
2022/05/09 02:51:49;;;;;;;5.43;4.90;;;;;;;9.70;75.64;102011.31;5097160;28;20610;-69
2022/05/09 02:54:16;;;;;;;5.10;4.90;;;;;;;9.66;75.97;102005.28;5115380;28;20192;-69
2022/05/09 02:56:43;;;;;;;4.80;4.43;;;;;;;9.63;76.01;102015.78;5115050;28;20732;-69
2022/05/09 02:59:10;;;;;;;5.23;4.83;;;;;;;9.65;76.25;102016.66;5115291;28;20687;-69
2022/05/09 03:01:36;;;;;;;8.03;5.03;;;;;;;9.63;76.29;102016.66;5115055;28;20686;-69
2022/05/09 03:06:49;;;;;;;5.43;5.17;;;;;;;9.63;76.40;102010.56;5115289;28;20615;-69
2022/05/09 03:09:16;;;;;;;5.20;4.80;;;;;;;9.55;76.70;102012.44;5114846;27;20212;-69
2022/05/09 03:11:42;;;;;;;5.20;4.90;;;;;;;9.57;76.84;102011.53;5115538;28;20171;-69
2022/05/09 03:14:08;;;;;;;6.50;4.83;;;;;;;9.53;76.99;102012.47;5114690;28;20216;-69
2022/05/09 03:16:35;;;;;;;5.40;5.17;;;;;;;9.58;76.90;102008.03;5114729;28;20289;-69
2022/05/09 03:19:02;;;;;;;5.40;4.57;;;;;;;9.51;76.84;102006.41;5113941;28;20205;-69
2022/05/09 03:21:29;;;;;;;6.37;5.23;;;;;;;9.46;77.36;102009.97;5114462;28;20222;-69
2022/05/09 03:23:55;;;;;;;6.03;5.43;;;;;;;9.41;77.43;102004.81;5114410;28;20210;-70
2022/05/09 03:26:21;;;;;;;6.77;5.20;;;;;;;9.37;77.67;102001.41;5114441;28;20261;-69
2022/05/09 03:28:48;;;;;;;7.20;5.37;;;;;;;9.37;77.70;102008.38;5114450;28;20211;-69
2022/05/09 03:31:14;;;;;;;6.23;4.93;;;;;;;9.35;77.95;102010.13;5114072;28;20199;-69
2022/05/09 03:33:41;;;;;;;5.30;4.73;;;;;;;9.36;77.98;102011.88;5114956;28;20267;-69
2022/05/09 03:36:08;;;;;;;4.63;4.43;;;;;;;9.32;78.28;102004.97;5114339;28;20183;-69
2022/05/09 03:38:34;;;;;;;5.40;4.97;;;;;;;9.25;78.40;101993.75;5098050;28;20266;-69
2022/05/09 03:41:02;;;;;;;6.13;4.60;;;;;;;9.26;78.64;102002.44;5098895;28;20237;-69
2022/05/09 03:43:28;;;;;;;5.03;4.63;;;;;;;9.23;79.24;102005.13;5114175;28;20258;-69
2022/05/09 03:45:57;;;;;;;5.30;4.90;;;;;;;9.23;79.04;101997.28;5114233;28;20684;-69
2022/05/09 03:48:23;;;;;;;5.17;4.97;;;;;;;9.25;79.04;102008.56;5114094;28;20207;-69
2022/05/09 03:50:50;;;;;;;5.77;5.33;;;;;;;9.21;79.09;102002.50;5114111;28;20185;-69
2022/05/09 03:53:16;;;;;;;4.90;4.80;;;;;;;9.20;79.20;102003.38;5114073;28;20547;-69
2022/05/09 03:55:43;;;;;;;5.70;5.30;;;;;;;9.18;79.09;102006.91;5114311;28;20188;-69
2022/05/09 03:58:09;;;;;;;5.37;5.10;;;;;;;9.19;79.48;101998.19;5113949;28;20711;-69
2022/05/09 04:00:37;;;;;;;5.77;5.03;;;;;;;9.19;79.76;102006.03;5114223;28;20189;-69
2022/05/09 04:03:05;;;;;;;5.13;4.83;;;;;;;9.19;80.14;102001.66;5114114;28;20246;-69
2022/05/09 04:05:35;;;;;;;5.57;5.30;;;;;;;9.22;80.15;102003.38;5113912;28;20186;-69
2022/05/09 04:08:06;;;;;;;4.83;4.53;;;;;;;9.22;80.39;102008.63;5114273;28;20556;-69
2022/05/09 04:10:35;;;;;;;5.13;4.93;;;;;;;9.24;80.69;102001.59;5113854;28;20584;-69
2022/05/09 04:13:01;;;;;;;5.83;5.30;;;;;;;9.22;80.70;102001.63;5114386;28;20195;-69
2022/05/09 04:18:17;;;;;;;5.43;5.13;;;;;;;9.21;80.45;101999.88;5113935;28;20209;-69
2022/05/09 04:20:45;;;;;;;5.97;5.17;;;;;;;9.17;80.72;101994.75;5113085;28;20195;-69
2022/05/09 04:23:12;;;;;;;5.43;5.23;;;;;;;9.17;80.67;101998.22;5113561;28;20195;-69
2022/05/09 04:25:38;;;;;;;6.23;5.67;;;;;;;9.14;81.07;101994.78;5113621;28;20185;-69
2022/05/09 04:28:11;;;;;;;9.33;5.07;;;;;;;9.13;81.20;101993.91;5113579;28;20214;-70
2022/05/09 04:30:39;;;;;;;5.70;5.30;;;;;;;9.13;81.41;101990.44;5108937;28;20193;-69
2022/05/09 04:33:07;;;;;;;5.33;5.13;;;;;;;9.18;81.40;101999.09;5107259;28;20264;-69
2022/05/09 04:35:35;;;;;;;7.20;6.00;;;;;;;9.16;81.57;101993.03;5113858;28;20181;-69
2022/05/09 04:38:02;;;;;;;8.27;5.37;;;;;;;9.16;81.52;101996.50;5113463;28;20270;-69
2022/05/09 04:40:32;;;;;;;5.60;5.30;;;;;;;9.14;81.44;101994.78;5114188;28;20196;-69
2022/05/09 04:42:59;;;;;;;5.67;5.00;;;;;;;9.13;81.57;101982.59;5116404;28;20528;-69
2022/05/09 04:45:28;;;;;;;6.47;6.07;;;;;;;9.12;82.03;101992.19;5115274;28;20191;-69
2022/05/09 04:47:55;;;;;;;9.87;6.10;;;;;;;9.10;82.27;101992.22;5116634;28;20205;-69
2022/05/09 04:50:24;;;;;;;5.73;5.30;;;;;;;9.10;82.28;101988.75;5117395;28;20644;-69
2022/05/09 04:52:51;;;;;;;6.50;6.00;;;;;;;9.17;82.65;101989.53;5114313;28;20184;-69
2022/05/09 04:55:18;;;;;;;7.73;6.13;;;;;;;9.24;83.04;101991.16;5117359;28;20192;-69
2022/05/09 04:57:49;;;;;;;5.87;5.60;;;;;;;9.32;83.00;101991.91;5117629;28;20650;-70
2022/05/09 05:00:19;;;;;;;8.23;5.70;;;;;;;9.40;82.83;101991.78;5115893;28;20194;-69
2022/05/09 05:02:45;;;;;;;6.93;6.20;;;;;;;9.38;82.70;101994.41;5116304;28;20553;-69
2022/05/09 05:05:12;;;;;;;7.03;6.47;;;;;;;9.50;81.67;101991.63;5117461;28;20264;-69
2022/05/09 05:07:39;;;;;;;7.13;6.70;;;;;;;9.52;81.78;101992.44;5113330;28;20558;-68
2022/05/09 05:10:06;;;;;;;7.90;5.50;;;;;;;9.43;81.75;101987.38;5115345;28;20207;-69
2022/05/09 05:12:33;;;;;;;6.67;6.17;;;;;;;9.52;81.57;101992.44;5107129;28;20652;-68
2022/05/09 05:15:00;;;;;;;5.80;5.70;;;;;;;9.50;82.03;101988.09;5115545;28;20589;-69
2022/05/09 05:17:27;;;;;;;6.97;6.43;;;;;;;9.59;81.58;101988.84;5117734;28;20183;-69
2022/05/09 05:19:54;;;;;;;9.37;6.17;;;;;;;9.64;81.62;101987.03;5116985;28;20216;-69
2022/05/09 05:22:20;;;;;;;10.87;6.83;;;;;;;9.63;81.84;101987.88;5117490;28;20233;-69
2022/05/09 05:24:52;;;;;;;6.17;5.97;;;;;;;9.68;81.50;101989.56;5098393;28;20265;-69
2022/05/09 05:27:21;;;;;;;6.93;6.57;;;;;;;9.70;82.57;101986.03;5117169;28;20631;-69
2022/05/09 05:29:50;;;;;;;6.57;6.03;;;;;;;9.85;81.69;101993.59;5116882;28;20214;-69
2022/05/09 05:32:24;;;;;;;7.07;6.57;;;;;;;9.93;81.94;101989.13;5116803;28;20184;-69
2022/05/09 05:34:51;;;;;;;7.00;6.20;;;;;;;10.01;81.93;101983.75;5116867;28;20172;-69
2022/05/09 05:37:18;;;;;;;10.53;6.43;;;;;;;10.10;81.28;101993.19;5116425;28;20193;-69
2022/05/09 05:39:46;;;;;;;6.83;6.17;;;;;;;10.13;81.15;101993.09;5116517;28;20212;-69
2022/05/09 05:42:16;;;;;;;10.20;6.23;;;;;;;10.17;80.47;101987.78;5116839;28;20180;-69
2022/05/09 05:44:44;;;;;;;6.57;6.13;;;;;;;10.31;79.96;101981.47;5116795;28;20227;-69
2022/05/09 05:47:14;;;;;;;12.77;7.07;;;;;;;10.38;81.07;101990.91;5116490;28;20231;-69
2022/05/09 05:49:41;;;;;;;6.37;5.97;;;;;;;10.51;80.94;101989.78;5116316;28;20268;-69
2022/05/09 05:52:11;;;;;;;6.83;6.07;;;;;;;10.58;80.43;101986.16;5116594;28;20189;-69
2022/05/09 05:54:40;;;;;;;16.20;6.97;;;;;;;10.63;80.06;101993.88;5116018;28;20552;-69
2022/05/09 05:57:28;;;;;;;7.10;6.70;;;;;;;10.73;77.85;101993.69;5116314;28;20255;-69
2022/05/09 06:00:01;;;;;;;6.97;6.67;;;;;;;10.88;76.99;101989.00;5116236;28;20267;-69
2022/05/09 06:02:28;;;;;;;9.20;7.60;;;;;;;10.78;76.99;101988.31;5116538;28;20260;-69
2022/05/09 06:04:55;;;;;;;14.83;6.77;;;;;;;10.85;77.30;101989.03;5116395;28;20193;-69
2022/05/09 06:07:22;;;;;;;7.37;6.77;;;;;;;10.90;76.65;101990.69;5116061;28;20623;-70
2022/05/09 06:09:51;;;;;;;7.90;7.27;;;;;;;10.98;77.38;101995.75;5116002;28;20236;-70
2022/05/09 06:12:19;;;;;;;6.93;6.53;;;;;;;11.11;77.07;101989.31;5115961;28;20196;-70
2022/05/09 06:15:24;;;;;;;14.63;7.37;;;;;;;11.20;76.69;101999.59;5115927;28;20181;-69
2022/05/09 06:17:34;;;;;;;9.90;7.50;;;;;;;11.32;75.82;101995.84;5116021;28;20189;-69
2022/05/09 06:20:04;;;;;;;7.27;6.87;;;;;;;11.37;76.19;101993.97;5116329;28;20192;-69
2022/05/09 06:22:31;;;;;;;7.47;6.97;;;;;;;11.35;76.15;101993.13;5116641;28;20549;-69
2022/05/09 06:24:59;;;;;;;9.10;7.37;;;;;;;11.36;76.36;101989.63;5115960;28;20205;-69
2022/05/09 06:27:26;;;;;;;7.33;6.80;;;;;;;11.53;76.50;101997.94;5115738;28;20276;-69
2022/05/09 06:29:52;;;;;;;8.10;7.37;;;;;;;11.60;76.76;101996.03;5115820;28;20571;-69
2022/05/09 06:32:23;;;;;;;8.53;7.37;;;;;;;11.79;76.81;101996.44;5115834;28;20576;-69
2022/05/09 06:34:51;;;;;;;9.90;8.27;;;;;;;12.01;76.26;101994.13;5116149;28;20188;-69
2022/05/09 06:37:18;;;;;;;16.90;7.90;;;;;;;12.16;76.05;102003.38;5115633;28;20663;-69
2022/05/09 06:39:44;;;;;;;20.90;7.30;;;;;;;12.31;74.29;101995.91;5116004;28;20215;-70
2022/05/09 06:42:11;;;;;;;8.00;7.30;;;;;;;12.36;75.21;101986.16;5115303;28;20181;-69
2022/05/09 06:44:39;;;;;;;16.83;7.37;;;;;;;12.46;74.46;101980.63;5097060;28;20213;-69
2022/05/09 06:47:06;;;;;;;8.10;7.27;;;;;;;12.63;74.33;101981.84;5115300;28;20719;-69
2022/05/09 06:49:33;;;;;;;7.03;6.67;;;;;;;12.79;74.11;101969.13;5115456;28;20559;-69
2022/05/09 06:52:00;;;;;;;7.60;7.00;;;;;;;12.93;73.65;101979.22;5115444;28;20194;-69
2022/05/09 06:54:26;;;;;;;11.93;8.47;;;;;;;13.01;71.94;101978.97;5115221;28;20541;-69
2022/05/09 06:56:53;;;;;;;8.77;7.77;;;;;;;13.14;72.25;101973.25;5115408;28;20218;-69
2022/05/09 06:59:20;;;;;;;8.50;7.73;;;;;;;13.23;72.21;101980.06;5114983;28;20203;-69
2022/05/09 07:01:48;;;;;;;11.57;8.50;;;;;;;13.31;71.50;101983.28;5115013;28;20655;-69
2022/05/09 07:04:15;;;;;;;10.63;7.83;;;;;;;13.40;72.26;101982.13;5114910;28;20192;-69
2022/05/09 07:06:42;;;;;;;9.97;7.50;;;;;;;13.51;71.59;101979.16;5115370;28;20647;-69
2022/05/09 07:09:15;;;;;;;8.20;7.57;;;;;;;13.63;71.40;101981.34;5115067;28;20204;-69
2022/05/09 07:11:42;;;;;;;9.53;7.67;;;;;;;13.77;71.87;101982.59;5115127;28;20540;-69
2022/05/09 07:14:09;;;;;;;9.50;8.70;;;;;;;13.94;70.83;101984.69;5114686;28;20181;-69
2022/05/09 07:16:36;;;;;;;9.70;8.97;;;;;;;13.99;69.48;101981.88;5114723;28;20186;-69
2022/05/09 07:19:04;;;;;;;11.60;8.20;;;;;;;14.09;71.73;101975.38;5114588;28;20212;-69
2022/05/09 07:21:31;;;;;;;8.17;7.67;;;;;;;14.19;70.22;101974.13;5114639;28;20202;-69
2022/05/09 07:23:59;;;;;;;9.70;8.00;;;;;;;14.32;70.60;101966.63;5114456;28;20620;-69
2022/05/09 07:26:26;;;;;;;8.73;7.80;;;;;;;14.46;69.28;101961.75;5114565;28;20193;-69
2022/05/09 07:28:52;;;;;;;8.90;7.67;;;;;;;14.58;68.61;101970.97;5114435;28;20217;-69
2022/05/09 07:31:19;;;;;;;15.03;8.70;;;;;;;14.59;68.46;101968.28;5114725;28;20185;-69
2022/05/09 07:33:46;;;;;;;9.60;8.77;;;;;;;14.72;69.23;101962.53;5114941;28;20185;-69
2022/05/09 07:36:13;;;;;;;8.10;7.30;;;;;;;14.87;68.21;101967.22;5096942;28;20196;-69
2022/05/09 07:38:39;;;;;;;15.97;8.37;;;;;;;14.98;68.32;101965.00;5114344;28;20616;-69
2022/05/09 07:41:06;;;;;;;12.27;7.27;;;;;;;15.12;67.99;101969.72;5114608;28;20544;-69
2022/05/09 07:43:32;;;;;;;13.53;7.60;;;;;;;15.19;67.09;101962.41;5114268;28;20659;-69
2022/05/09 07:45:59;;;;;;;21.73;7.80;;;;;;;15.28;67.18;101965.53;5114718;28;20262;-69
2022/05/09 07:48:28;;;;;;;9.20;8.13;;;;;;;15.42;67.27;101967.59;5114144;28;20208;-69
2022/05/09 07:50:57;;;;;;;16.47;8.23;;;;;;;15.49;66.74;101966.44;5114216;28;20556;-70
2022/05/09 07:53:27;;;;;;;7.80;7.07;;;;;;;15.54;65.77;101968.88;5114118;28;20276;-70
2022/05/09 07:56:00;;;;;;;14.67;8.50;;;;;;;15.66;67.17;101968.41;5114593;28;20265;-70
2022/05/09 07:58:26;;;;;;;16.03;7.50;;;;;;;15.80;66.17;101965.19;5114179;28;20678;-69
2022/05/09 08:00:58;;;;;;;13.80;7.73;;;;;;;15.96;66.63;101967.09;5114275;28;20196;-69
2022/05/09 08:03:27;;;;;;;8.20;7.47;;;;;;;16.11;65.61;101965.56;5114474;28;20631;-69
2022/05/09 08:05:58;;;;;;;6.53;6.10;;;;;;;16.22;65.53;101957.16;5114133;28;20189;-69
2022/05/09 08:08:25;;;;;;;9.40;6.73;;;;;;;16.37;65.96;101956.47;5113750;28;20571;-69
2022/05/09 08:10:51;;;;;;;7.40;6.73;;;;;;;16.40;66.35;101956.31;5114458;28;20169;-69
2022/05/09 08:13:19;;;;;;;7.10;6.70;;;;;;;16.51;64.63;101953.19;5114037;28;20692;-70
2022/05/09 08:15:47;;;;;;;6.93;6.30;;;;;;;16.61;64.14;101946.53;5113744;28;20185;-70
2022/05/09 08:18:14;;;;;;;6.63;6.07;;;;;;;16.78;64.61;101954.53;5114500;28;20205;-70
2022/05/09 08:20:45;;;;;;;11.47;5.97;;;;;;;16.86;64.90;101950.69;5113707;28;20181;-70
2022/05/09 08:23:15;;;;;;;7.50;7.07;;;;;;;17.08;63.81;101948.75;5114543;28;20177;-69
2022/05/09 08:25:44;;;;;;;6.87;6.23;;;;;;;17.14;63.31;101951.06;5113603;28;20697;-69
2022/05/09 08:28:10;;;;;;;6.27;5.67;;;;;;;17.26;63.86;101950.47;5113766;28;20714;-70
2022/05/09 08:30:38;;;;;;;6.97;6.10;;;;;;;17.35;62.68;101957.09;5113857;28;20204;-70
2022/05/09 08:33:14;;;;;;;6.57;5.97;;;;;;;17.40;63.00;101954.22;5113611;28;20188;-70
2022/05/09 08:35:47;;;;;;;6.23;5.83;;;;;;;17.46;63.39;101943.31;5113578;28;20179;-70
2022/05/09 08:38:15;;;;;;;7.30;5.80;;;;;;;17.59;63.01;101952.38;5113489;28;20262;-70
2022/05/09 08:41:08;;;;;;;10.30;5.53;;;;;;;17.67;63.24;101950.19;5113830;28;20197;-70
2022/05/09 08:44:17;;;;;;;6.33;6.03;;;;;;;17.77;62.36;101954.09;5113560;28;20578;-70
2022/05/09 08:46:59;;;;;;;5.73;4.90;;;;;;;17.83;62.57;101951.13;5113789;28;20207;-70
2022/05/09 08:49:40;;;;;;;6.13;5.60;;;;;;;17.83;61.66;101948.47;5113472;28;20575;-70
2022/05/09 08:52:21;;;;;;;8.33;6.10;;;;;;;17.99;62.03;101948.53;5113808;28;20180;-70
2022/05/09 08:54:50;;;;;;;6.57;6.00;;;;;;;18.09;61.98;101938.31;5113712;28;20529;-70
2022/05/09 08:57:21;;;;;;;5.97;5.47;;;;;;;18.07;61.02;101941.06;5113403;28;20181;-70
2022/05/09 08:59:58;;;;;;;6.33;5.67;;;;;;;18.07;61.14;101946.34;5113673;28;20209;-70
2022/05/09 09:02:34;;;;;;;6.63;6.23;;;;;;;18.23;62.17;101946.38;5113593;28;20173;-70
2022/05/09 09:05:03;;;;;;;5.63;5.20;;;;;;;18.31;61.76;101944.16;5113842;28;20205;-70
2022/05/09 09:07:39;;;;;;;11.00;6.63;;;;;;;18.60;60.10;101944.38;5113927;28;20638;-70
2022/05/09 09:10:26;;;;;;;7.47;5.70;;;;;;;18.65;60.70;101942.34;5113615;28;20251;-70
2022/05/09 09:13:05;;;;;;;5.40;5.20;;;;;;;18.63;60.72;101938.88;5113571;28;20180;-70
2022/05/09 09:16:00;;;;;;;7.07;6.57;;;;;;;18.65;61.67;101935.22;5113391;28;20620;-70
2022/05/09 09:18:48;;;;;;;6.27;5.97;;;;;;;18.90;60.87;101942.69;5113969;28;20213;-70
2022/05/09 09:21:29;;;;;;;8.70;6.03;;;;;;;18.88;61.02;101933.97;5108570;28;20185;-70
2022/05/09 09:24:30;;;;;;;6.40;6.20;;;;;;;18.98;61.54;101939.59;5110124;28;20276;-70
2022/05/09 09:27:11;;;;;;;13.33;6.83;;;;;;;19.16;61.56;101938.56;5110958;28;20662;-69
2022/05/09 09:29:47;;;;;;;7.73;7.17;;;;;;;19.30;61.83;101940.41;5110230;28;20720;-69
2022/05/09 09:32:20;;;;;;;6.93;6.60;;;;;;;19.29;61.66;101936.03;5113035;28;20238;-70
2022/05/09 09:35:00;;;;;;;6.87;6.53;;;;;;;19.13;61.60;101930.75;5112633;28;20185;-69
2022/05/09 09:37:53;;;;;;;7.83;7.23;;;;;;;19.29;62.06;101933.38;5113354;28;20193;-69
2022/05/09 09:40:20;;;;;;;6.87;6.37;;;;;;;19.37;61.63;101930.28;5112812;28;20580;-69
2022/05/09 09:42:51;;;;;;;9.93;9.00;;;;;;;19.45;62.56;101933.34;5115840;28;20189;-70
2022/05/09 09:45:44;;;;;;;6.60;6.20;;;;;;;19.66;61.56;101928.59;5114250;28;20280;-69
2022/05/09 09:48:14;;;;;;;7.37;5.67;;;;;;;19.73;60.79;101927.25;5111839;28;20597;-70
2022/05/09 09:51:11;;;;;;;5.33;5.17;;;;;;;19.77;62.46;101931.44;5114616;28;20194;-69
2022/05/09 09:54:01;;;;;;;6.70;6.17;;;;;;;19.94;61.61;101925.97;5095054;28;20205;-70
2022/05/09 09:56:31;;;;;;;9.23;5.60;;;;;;;20.04;60.87;101918.25;5114452;28;20200;-69
2022/05/09 09:58:59;;;;;;;7.07;6.50;;;;;;;20.12;60.67;101923.09;5116092;28;20213;-70
2022/05/09 10:01:32;;;;;;;6.53;6.07;;;;;;;20.21;60.09;101909.22;5114642;28;20196;-69
2022/05/09 10:04:27;;;;;;;9.60;7.50;;;;;;;19.91;60.13;101915.50;5115409;28;20193;-70
2022/05/09 10:07:01;;;;;;;8.13;7.67;;;;;;;19.67;61.21;101906.38;5110347;28;20209;-71
2022/05/09 10:09:35;;;;;;;7.07;6.67;;;;;;;19.78;62.17;101904.75;5115141;28;20266;-70
2022/05/09 10:12:16;;;;;;;9.40;8.77;;;;;;;19.72;61.37;101905.16;5115491;28;20189;-69
2022/05/09 10:14:43;;;;;;;6.80;6.60;;;;;;;19.81;62.23;101901.06;5115073;28;20198;-70
2022/05/09 10:17:15;;;;;;;8.13;7.73;;;;;;;19.86;62.29;101904.31;5115347;28;20186;-70
2022/05/09 10:19:42;;;;;;;8.40;7.63;;;;;;;19.83;61.42;101901.81;5112529;28;20208;-68
2022/05/09 10:25:07;;;;;;;7.27;6.80;;;;;;;19.94;61.84;101888.75;5112179;28;20205;-69
2022/05/09 10:27:37;;;;;;;7.03;6.63;;;;;;;20.02;62.13;101875.81;5113998;28;21014;-70
2022/05/09 10:30:08;;;;;;;7.43;7.13;;;;;;;20.16;62.41;101882.09;5110420;28;20250;-70
2022/05/09 10:32:47;;;;;;;6.63;6.43;;;;;;;20.30;61.39;101876.75;5114941;28;20185;-69
2022/05/09 10:35:52;;;;;;;5.80;5.80;;;;;;;20.35;61.47;101875.47;5115361;28;20185;-70
2022/05/09 10:38:30;;;;;;;8.63;7.97;;;;;;;20.53;59.73;101875.28;5012121;28;20224;-69
2022/05/09 10:41:05;;;;;;;8.83;8.00;;;;;;;20.77;61.09;101872.84;5011017;28;20320;-69
2022/05/09 10:43:41;;;;;;;7.40;7.20;;;;;;;20.83;59.67;101873.28;5075038;28;20201;-70
2022/05/09 10:46:12;;;;;;;7.00;6.80;;;;;;;20.92;59.89;101870.97;5115412;28;20203;-70
2022/05/09 10:48:54;;;;;;;7.00;6.60;;;;;;;21.06;60.93;101869.09;5116015;28;20288;-70
2022/05/09 10:51:39;;;;;;;7.03;6.70;;;;;;;21.23;60.31;101869.78;5115823;28;20177;-70
2022/05/09 10:54:22;;;;;;;6.50;6.20;;;;;;;21.26;59.97;101865.09;5115467;28;20169;-70
2022/05/09 10:57:28;;;;;;;6.60;6.50;;;;;;;21.32;59.80;101850.53;5115257;28;20164;-70
2022/05/09 11:00:18;;;;;;;6.80;6.30;;;;;;;21.40;60.56;101854.38;5088543;28;20205;-70
2022/05/09 11:03:34;;;;;;;6.10;5.80;;;;;;;21.55;60.19;101849.78;5115629;28;20169;-70
2022/05/09 11:06:35;;;;;;;6.10;5.60;;;;;;;21.30;58.24;101847.13;5072071;28;20224;-70
2022/05/09 11:09:05;;;;;;;6.00;5.70;;;;;;;21.29;58.02;101846.28;5115670;28;20606;-70
2022/05/09 11:12:12;;;;;;;6.20;6.00;;;;;;;21.37;59.88;101835.94;5114823;28;20592;-70
2022/05/09 11:15:21;;;;;;;6.63;6.20;;;;;;;21.39;58.27;101828.69;5115204;28;20173;-70
2022/05/09 11:18:08;;;;;;;14.70;6.97;;;;;;;21.68;58.05;101829.31;5115061;28;20178;-70
2022/05/09 11:20:51;;;;;;;7.93;7.03;;;;;;;21.53;58.17;101832.22;5114995;28;20177;-70
2022/05/09 11:23:29;;;;;;;6.33;6.03;;;;;;;21.55;59.56;101822.28;5114887;28;20181;-70
2022/05/09 11:26:03;;;;;;;6.33;6.07;;;;;;;21.48;57.32;101816.53;5114853;28;20720;-70
2022/05/09 11:29:09;;;;;;;8.00;7.60;;;;;;;21.52;58.33;101812.72;5114767;28;20212;-70
2022/05/09 11:31:46;;;;;;;8.13;7.20;;;;;;;21.56;58.71;101816.00;5114492;28;20199;-70
2022/05/09 11:34:36;;;;;;;8.63;6.87;;;;;;;21.67;58.67;101814.28;5112254;28;20238;-69
2022/05/09 11:37:28;;;;;;;6.43;6.03;;;;;;;21.77;57.94;101813.63;5112140;28;20181;-70
2022/05/09 11:40:29;;;;;;;6.93;6.77;;;;;;;21.92;58.98;101812.53;5111814;28;20554;-70
2022/05/09 11:46:18;;;;;;;6.57;6.33;;;;;;;22.16;54.44;101808.16;5110399;28;20220;-70
2022/05/09 11:49:22;;;;;;;6.57;6.47;;;;;;;22.39;55.85;101816.28;5113577;28;20223;-69
2022/05/09 11:51:52;;;;;;;6.57;6.47;;;;;;;22.28;56.17;101805.53;5113280;28;20615;-71
2022/05/09 11:54:40;;;;;;;6.07;5.77;;;;;;;22.15;56.27;101803.78;5113300;28;20192;-70
2022/05/09 11:57:25;;;;;;;6.60;5.93;;;;;;;22.18;55.69;101800.03;5113288;28;20543;-70
2022/05/09 11:59:54;;;;;;;6.07;5.87;;;;;;;22.27;55.35;101798.50;5114246;28;20200;-70
2022/05/09 12:02:51;;;;;;;5.83;5.43;;;;;;;22.31;56.36;101789.31;5113965;28;20184;-70